Time;durP1;ratioP1;P1;durP2;ratioP2;P2;SDS_P1;SDS_P2;PMS_P1;PMS_P2;Temp;Humidity;BMP_temperature;BMP_pressure;BME280_temperature;BME280_humidity;BME280_pressure;Samples;Min_cycle;Max_cycle;Signal;HPM_P1;HPM_P2
2022/05/24 00:01:25;;;;;;;2.58;0.82;;;18.10;99.90;;;;;;4938359;29;20078;-71
2022/05/24 00:03:51;;;;;;;3.20;1.08;;;18.10;99.90;;;;;;4955250;29;20061;-71
2022/05/24 00:06:17;;;;;;;1.42;0.70;;;18.10;99.90;;;;;;4955615;29;20020;-71
2022/05/24 00:08:43;;;;;;;1.35;0.70;;;18.10;99.90;;;;;;4955733;29;20035;-70
2022/05/24 00:11:10;;;;;;;1.20;0.70;;;18.00;99.90;;;;;;4953763;28;20031;-71
2022/05/24 00:13:35;;;;;;;3.05;0.90;;;18.00;99.90;;;;;;4953732;29;20078;-71
2022/05/24 00:16:03;;;;;;;2.00;0.70;;;18.00;99.90;;;;;;4955385;29;20655;-71
2022/05/24 00:18:30;;;;;;;2.58;0.70;;;18.00;99.90;;;;;;4954002;29;20027;-71
2022/05/24 00:21:04;;;;;;;2.17;0.65;;;18.00;99.90;;;;;;4955144;29;20369;-71
2022/05/24 00:23:30;;;;;;;1.05;0.90;;;18.00;99.90;;;;;;4943697;29;20033;-71
2022/05/24 00:26:08;;;;;;;2.60;0.80;;;18.00;99.90;;;;;;4955118;29;20035;-71
2022/05/24 00:28:35;;;;;;;3.08;0.70;;;18.00;99.90;;;;;;4955312;29;20027;-71
2022/05/24 00:31:05;;;;;;;1.58;0.70;;;18.00;99.90;;;;;;4969869;28;20394;-70
2022/05/24 00:33:32;;;;;;;1.02;0.70;;;18.00;99.90;;;;;;4954921;29;20059;-70
2022/05/24 00:35:58;;;;;;;2.42;0.70;;;18.00;99.90;;;;;;4955577;29;20015;-71
2022/05/24 00:38:33;;;;;;;1.73;0.80;;;18.00;99.90;;;;;;4955105;29;20358;-71
2022/05/24 00:41:24;;;;;;;2.55;0.60;;;18.00;99.90;;;;;;4953704;29;20078;-71
2022/05/24 00:44:15;;;;;;;1.77;0.82;;;18.00;99.90;;;;;;4955101;29;20034;-71
2022/05/24 00:47:00;;;;;;;2.40;0.90;;;18.00;99.90;;;;;;4954974;29;20027;-71
2022/05/24 00:49:37;;;;;;;1.20;0.70;;;18.00;99.90;;;;;;4954981;29;20034;-71
2022/05/24 00:52:30;;;;;;;0.82;0.60;;;17.90;99.90;;;;;;4954861;29;20038;-70
2022/05/24 00:54:58;;;;;;;1.00;0.50;;;17.90;99.90;;;;;;4937185;29;20400;-71
2022/05/24 00:57:44;;;;;;;5.53;1.00;;;17.90;99.90;;;;;;4954705;29;20052;-70
2022/05/24 01:00:10;;;;;;;0.93;0.60;;;17.90;99.90;;;;;;4954406;29;20090;-70
2022/05/24 01:02:37;;;;;;;3.85;0.93;;;17.90;99.90;;;;;;4950101;29;20420;-70
2022/05/24 01:05:08;;;;;;;1.13;0.80;;;17.80;99.90;;;;;;4958290;28;20031;-75
2022/05/24 01:07:33;;;;;;;3.97;1.10;;;17.80;99.90;;;;;;4947092;28;20111;-75
2022/05/24 01:10:12;;;;;;;1.30;0.77;;;17.80;99.90;;;;;;4945063;28;20110;-75
2022/05/24 01:13:11;;;;;;;1.90;0.80;;;17.80;99.90;;;;;;4963704;28;20051;-75
2022/05/24 01:15:39;;;;;;;4.47;0.90;;;17.80;99.90;;;;;;4950239;28;20038;-75
2022/05/24 01:18:05;;;;;;;0.90;0.60;;;17.80;99.90;;;;;;4947420;28;20028;-75
2022/05/24 01:20:31;;;;;;;1.55;0.82;;;17.80;99.90;;;;;;4948027;28;20031;-75
2022/05/24 01:23:12;;;;;;;4.32;1.10;;;17.70;99.90;;;;;;4950463;28;20391;-74
2022/05/24 01:26:10;;;;;;;1.67;0.73;;;17.70;99.90;;;;;;4957892;28;20114;-75
2022/05/24 01:28:53;;;;;;;1.75;0.80;;;17.70;99.90;;;;;;4960196;28;20023;-75
2022/05/24 01:31:21;;;;;;;0.73;0.68;;;17.70;99.90;;;;;;4949087;28;20495;-75
2022/05/24 01:36:40;;;;;;;1.10;0.77;;;17.70;99.90;;;;;;4949926;28;20058;-76
2022/05/24 01:39:09;;;;;;;1.73;0.60;;;17.70;99.90;;;;;;4950523;28;20488;-75
2022/05/24 01:41:42;;;;;;;3.03;0.95;;;17.70;99.90;;;;;;4948312;28;20027;-74
2022/05/24 01:44:10;;;;;;;1.35;0.60;;;17.70;99.90;;;;;;4947628;28;20424;-74
2022/05/24 01:46:46;;;;;;;0.90;0.73;;;17.70;99.90;;;;;;4947300;28;20027;-76
2022/05/24 01:49:21;;;;;;;2.90;0.90;;;17.70;99.90;;;;;;4954297;28;20042;-77
2022/05/24 01:52:01;;;;;;;1.58;1.02;;;17.60;99.90;;;;;;4962769;28;20046;-76
2022/05/24 01:54:29;;;;;;;4.35;0.95;;;17.50;99.90;;;;;;4946432;28;20122;-76
2022/05/24 01:57:14;;;;;;;1.83;0.90;;;17.50;99.90;;;;;;4948313;28;20027;-76
2022/05/24 01:59:41;;;;;;;1.13;0.80;;;17.50;99.90;;;;;;4950791;28;20019;-76
2022/05/24 02:02:07;;;;;;;2.17;0.90;;;17.50;99.90;;;;;;4960297;28;20023;-76
2022/05/24 02:04:33;;;;;;;3.72;0.70;;;17.50;99.90;;;;;;4938270;28;20106;-74
2022/05/24 02:07:05;;;;;;;2.15;0.90;;;17.50;99.90;;;;;;4930153;28;20039;-77
2022/05/24 02:09:38;;;;;;;1.85;0.90;;;17.40;99.90;;;;;;4948663;28;20041;-76
2022/05/24 02:12:16;;;;;;;1.20;0.98;;;17.40;99.90;;;;;;4947842;28;20023;-76
2022/05/24 02:14:51;;;;;;;2.22;0.80;;;17.40;99.90;;;;;;4945669;28;20039;-76
2022/05/24 02:17:27;;;;;;;2.95;0.70;;;17.30;99.90;;;;;;4949789;28;20015;-76
2022/05/24 02:19:56;;;;;;;2.17;1.00;;;17.30;99.90;;;;;;4945240;28;20024;-76
2022/05/24 02:22:28;;;;;;;1.50;0.80;;;17.30;99.90;;;;;;4949138;28;20020;-76
2022/05/24 02:25:26;;;;;;;1.67;0.80;;;17.20;99.90;;;;;;4943894;28;20035;-76
2022/05/24 02:27:52;;;;;;;0.63;0.57;;;17.20;99.90;;;;;;4940466;28;20042;-76
2022/05/24 02:30:22;;;;;;;1.40;0.70;;;17.20;99.90;;;;;;4948268;28;20035;-76
2022/05/24 02:32:48;;;;;;;3.53;1.08;;;17.20;99.90;;;;;;4958827;28;20031;-76
2022/05/24 02:35:14;;;;;;;1.13;0.70;;;17.10;99.90;;;;;;4946809;28;20110;-76
2022/05/24 02:37:40;;;;;;;1.48;0.60;;;17.10;99.90;;;;;;4954065;28;20028;-76
2022/05/24 02:42:51;;;;;;;3.33;0.90;;;17.00;99.90;;;;;;4952511;28;20058;-77
2022/05/24 02:45:17;;;;;;;3.80;0.90;;;17.00;99.90;;;;;;4948290;28;20122;-77
2022/05/24 02:47:42;;;;;;;1.15;0.60;;;16.90;99.90;;;;;;4952021;28;20088;-76
2022/05/24 02:50:11;;;;;;;1.95;0.90;;;16.90;99.90;;;;;;4953025;28;20089;-76
2022/05/24 02:52:40;;;;;;;3.28;0.80;;;16.90;99.90;;;;;;4947436;28;23335;-76
2022/05/24 02:55:11;;;;;;;2.35;1.05;;;16.80;99.90;;;;;;4948541;28;20046;-76
2022/05/24 02:57:38;;;;;;;1.17;0.90;;;16.80;99.90;;;;;;4949740;28;20024;-75
2022/05/24 03:00:08;;;;;;;2.35;0.80;;;16.80;99.90;;;;;;4949697;28;20078;-75
2022/05/24 03:02:34;;;;;;;4.63;1.30;;;16.80;99.90;;;;;;4946136;28;20099;-75
2022/05/24 03:05:01;;;;;;;2.22;1.00;;;16.80;99.90;;;;;;4948267;28;20412;-75
2022/05/24 03:10:10;;;;;;;;;;;16.70;99.90;;;;;;4952823;28;20207;-75
2022/05/24 03:15:20;;;;;;;;;;;16.70;99.90;;;;;;4951454;28;20101;-75
2022/05/24 03:17:46;;;;;;;1.80;0.70;;;16.70;99.90;;;;;;4947551;28;19910;-76
2022/05/24 03:20:11;;;;;;;2.10;0.57;;;16.70;99.90;;;;;;4964653;28;20028;-75
2022/05/24 03:22:37;;;;;;;2.92;0.70;;;16.60;99.90;;;;;;4947746;28;20024;-76
2022/05/24 03:25:03;;;;;;;1.10;0.70;;;16.70;99.90;;;;;;4950725;28;20034;-75
2022/05/24 03:27:29;;;;;;;3.38;1.00;;;16.70;99.90;;;;;;4945616;28;20488;-75
2022/05/24 03:29:54;;;;;;;3.83;0.82;;;16.70;99.90;;;;;;4953870;28;20030;-75
2022/05/24 03:32:20;;;;;;;3.63;0.90;;;16.70;99.90;;;;;;4949650;28;20122;-75
2022/05/24 03:34:51;;;;;;;4.07;0.90;;;16.70;99.90;;;;;;4951717;28;20170;-75
2022/05/24 03:37:17;;;;;;;5.18;1.00;;;16.70;99.90;;;;;;4951205;28;20109;-75
2022/05/24 03:39:43;;;;;;;3.50;0.82;;;16.70;99.90;;;;;;4952089;28;20075;-75
2022/05/24 03:42:13;;;;;;;2.30;0.90;;;16.70;99.90;;;;;;4950234;28;20026;-76
2022/05/24 03:44:39;;;;;;;3.88;0.70;;;16.70;99.90;;;;;;4954384;28;20026;-75
2022/05/24 03:47:05;;;;;;;5.03;1.23;;;16.70;99.90;;;;;;4950492;28;20028;-75
2022/05/24 03:49:31;;;;;;;4.28;0.95;;;16.70;99.90;;;;;;4952309;28;20031;-75
2022/05/24 03:51:57;;;;;;;3.17;1.00;;;16.70;99.90;;;;;;4945106;28;20539;-75
2022/05/24 03:54:22;;;;;;;1.10;0.80;;;16.70;99.90;;;;;;4945540;28;20122;-75
2022/05/24 03:59:35;;;;;;;3.55;0.70;;;16.70;99.90;;;;;;4944071;28;20037;-75
2022/05/24 04:02:01;;;;;;;1.33;0.75;;;16.80;99.90;;;;;;4947964;28;20034;-76
2022/05/24 04:04:26;;;;;;;2.28;1.00;;;16.80;99.90;;;;;;4962611;28;20031;-76
2022/05/24 04:06:52;;;;;;;1.00;0.80;;;16.80;99.90;;;;;;4949136;28;20054;-75
2022/05/24 04:09:18;;;;;;;3.33;0.93;;;16.80;99.90;;;;;;4965203;28;20034;-75
2022/05/24 04:11:43;;;;;;;3.00;0.98;;;16.80;99.90;;;;;;4936138;28;20053;-75
2022/05/24 04:14:12;;;;;;;1.95;0.90;;;16.70;99.90;;;;;;4951530;28;20035;-75
2022/05/24 04:16:38;;;;;;;3.63;1.25;;;16.70;99.90;;;;;;4941692;28;20032;-75
2022/05/24 04:19:04;;;;;;;1.70;1.13;;;16.60;99.90;;;;;;4950252;28;20098;-75
2022/05/24 04:21:30;;;;;;;2.10;1.10;;;16.60;99.90;;;;;;4940601;28;20024;-75
2022/05/24 04:23:56;;;;;;;3.65;1.20;;;16.60;99.90;;;;;;4945899;28;20039;-75
2022/05/24 04:26:21;;;;;;;4.38;1.17;;;16.70;99.90;;;;;;4940343;28;20035;-76
2022/05/24 04:28:47;;;;;;;1.40;0.90;;;16.70;99.90;;;;;;4946474;28;20037;-76
2022/05/24 04:31:15;;;;;;;1.35;0.70;;;16.70;99.90;;;;;;4944295;28;20082;-75
2022/05/24 04:33:41;;;;;;;2.08;0.90;;;16.70;99.90;;;;;;4949666;28;20083;-75
2022/05/24 04:36:07;;;;;;;3.33;0.95;;;16.70;99.90;;;;;;4948526;28;20535;-75
2022/05/24 04:38:33;;;;;;;1.27;0.93;;;16.70;99.90;;;;;;4950960;28;20031;-73
2022/05/24 04:43:42;;;;;;;;;;;16.70;99.90;;;;;;4951609;28;20047;-73
2022/05/24 04:46:08;;;;;;;1.10;0.70;;;16.70;99.90;;;;;;4953224;28;19929;-73
2022/05/24 04:48:34;;;;;;;0.88;0.80;;;16.70;99.90;;;;;;4957249;28;20484;-72
2022/05/24 04:51:00;;;;;;;4.07;1.00;;;16.70;99.90;;;;;;4942991;28;20031;-73
2022/05/24 04:53:27;;;;;;;3.45;0.90;;;16.80;99.90;;;;;;4956045;28;20471;-74
2022/05/24 04:55:53;;;;;;;2.30;0.95;;;16.80;99.90;;;;;;4891295;28;20107;-73
2022/05/24 04:58:20;;;;;;;3.17;0.95;;;16.80;99.90;;;;;;4955428;28;20027;-73
2022/05/24 05:00:48;;;;;;;2.80;0.90;;;16.80;99.90;;;;;;4951961;28;20054;-73
2022/05/24 05:03:17;;;;;;;3.45;0.90;;;16.90;99.90;;;;;;4954992;28;20050;-72
2022/05/24 05:05:44;;;;;;;2.45;1.13;;;16.80;99.90;;;;;;4957492;28;20601;-72
2022/05/24 05:08:10;;;;;;;5.55;1.00;;;16.90;99.90;;;;;;4953835;28;20034;-72
2022/05/24 05:10:36;;;;;;;2.45;0.93;;;16.90;99.90;;;;;;4972937;28;20022;-73
2022/05/24 05:13:04;;;;;;;1.10;0.70;;;16.90;99.90;;;;;;4955798;28;20483;-73
2022/05/24 05:15:31;;;;;;;3.35;1.20;;;16.90;99.90;;;;;;4955203;28;20316;-72
2022/05/24 05:18:11;;;;;;;1.33;0.75;;;16.90;99.90;;;;;;4973057;28;20061;-73
2022/05/24 05:20:39;;;;;;;3.55;0.95;;;16.90;99.90;;;;;;4968169;28;20506;-72
2022/05/24 05:23:13;;;;;;;2.35;0.88;;;16.90;99.90;;;;;;4972177;28;20069;-73
2022/05/24 05:25:41;;;;;;;2.38;1.30;;;17.00;99.90;;;;;;4955549;28;20044;-73
2022/05/24 05:28:07;;;;;;;3.10;0.93;;;17.00;99.90;;;;;;4969329;28;20475;-73
2022/05/24 05:33:17;;;;;;;3.00;1.02;;;17.10;99.90;;;;;;4973371;28;20029;-73
2022/05/24 05:35:46;;;;;;;4.38;1.50;;;17.10;99.90;;;;;;4975530;28;20027;-73
2022/05/24 05:38:12;;;;;;;1.65;1.00;;;17.20;99.90;;;;;;4949723;28;20019;-72
2022/05/24 05:40:39;;;;;;;1.83;0.90;;;17.20;99.90;;;;;;4967377;28;20027;-72
2022/05/24 05:43:05;;;;;;;2.55;1.00;;;17.20;99.90;;;;;;4969229;28;20038;-73
2022/05/24 05:45:30;;;;;;;1.73;0.90;;;17.20;99.90;;;;;;4946339;28;20109;-73
2022/05/24 05:47:56;;;;;;;3.35;1.02;;;17.20;99.90;;;;;;4967473;28;20122;-74
2022/05/24 05:50:22;;;;;;;3.05;1.45;;;17.30;99.90;;;;;;4956170;28;20027;-74
2022/05/24 05:52:49;;;;;;;2.38;1.08;;;17.30;99.90;;;;;;4969291;28;20039;-73
2022/05/24 05:55:15;;;;;;;3.30;1.10;;;17.40;99.90;;;;;;4951321;28;20057;-73
2022/05/24 05:57:41;;;;;;;7.78;1.50;;;17.40;99.90;;;;;;4964833;28;20046;-72
2022/05/24 06:00:08;;;;;;;2.08;1.10;;;17.50;99.90;;;;;;4966107;28;20046;-74
2022/05/24 06:02:35;;;;;;;3.63;1.35;;;17.50;99.90;;;;;;4968896;28;20101;-73
2022/05/24 06:05:02;;;;;;;2.63;1.00;;;17.50;99.90;;;;;;4950865;28;20046;-73
2022/05/24 06:07:28;;;;;;;3.72;1.15;;;17.50;99.90;;;;;;4953284;28;20706;-73
2022/05/24 06:09:53;;;;;;;2.83;1.00;;;17.60;99.90;;;;;;4970835;28;20140;-74
2022/05/24 06:12:19;;;;;;;2.28;1.27;;;17.70;99.90;;;;;;4961387;28;20060;-73
2022/05/24 06:14:45;;;;;;;4.47;1.27;;;17.70;99.90;;;;;;4955350;28;20038;-73
2022/05/24 06:17:11;;;;;;;4.38;0.90;;;17.70;99.90;;;;;;4976372;28;20101;-73
2022/05/24 06:19:37;;;;;;;2.03;0.85;;;17.80;99.90;;;;;;4966215;28;20023;-73
2022/05/24 06:22:03;;;;;;;4.90;1.13;;;17.80;99.90;;;;;;4975915;28;20398;-73
2022/05/24 06:24:29;;;;;;;2.92;1.13;;;17.90;99.90;;;;;;4969770;28;20454;-73
2022/05/24 06:26:55;;;;;;;4.10;1.23;;;18.00;99.90;;;;;;4969772;28;20026;-73
2022/05/24 06:29:20;;;;;;;3.15;0.95;;;18.00;99.90;;;;;;4956465;28;20043;-73
2022/05/24 06:31:46;;;;;;;6.20;0.85;;;18.10;99.90;;;;;;4968480;28;20030;-73
2022/05/24 06:34:12;;;;;;;3.03;1.00;;;18.10;99.90;;;;;;4971375;28;20487;-73
2022/05/24 06:36:38;;;;;;;2.17;0.80;;;18.20;99.90;;;;;;4970812;28;20027;-73
2022/05/24 06:39:04;;;;;;;2.15;0.88;;;18.30;99.90;;;;;;4972893;28;20037;-73
2022/05/24 06:41:30;;;;;;;1.95;0.90;;;18.30;99.90;;;;;;4970076;28;20034;-73
2022/05/24 06:43:55;;;;;;;5.70;0.70;;;18.30;99.90;;;;;;4954241;28;20161;-73
2022/05/24 06:46:21;;;;;;;4.25;0.80;;;18.30;99.90;;;;;;4969848;28;20039;-73
2022/05/24 06:48:47;;;;;;;1.77;0.60;;;18.30;99.90;;;;;;4972259;28;20109;-73
2022/05/24 06:51:19;;;;;;;2.05;0.75;;;18.40;99.90;;;;;;4956204;28;20031;-73
2022/05/24 06:53:46;;;;;;;3.17;0.90;;;18.40;99.90;;;;;;4969611;28;20038;-73
2022/05/24 06:56:12;;;;;;;2.63;0.80;;;18.50;99.90;;;;;;4973501;28;20027;-73
2022/05/24 06:58:38;;;;;;;2.13;0.68;;;18.50;99.90;;;;;;4970660;28;20073;-73
2022/05/24 07:03:51;;;;;;;3.03;0.82;;;18.60;99.90;;;;;;4989888;23;20126;-72
2022/05/24 07:06:17;;;;;;;4.50;0.70;;;18.70;99.90;;;;;;4991006;28;20452;-72
2022/05/24 07:08:47;;;;;;;4.03;0.73;;;18.80;99.90;;;;;;4989094;28;20045;-72
2022/05/24 07:11:14;;;;;;;6.20;0.85;;;18.80;99.90;;;;;;4989862;28;20018;-74
2022/05/24 07:13:40;;;;;;;2.22;0.75;;;18.80;99.90;;;;;;4992158;28;20022;-73
2022/05/24 07:16:08;;;;;;;3.90;0.80;;;18.70;99.90;;;;;;4988649;28;20493;-73
2022/05/24 07:18:34;;;;;;;1.33;0.50;;;18.70;99.90;;;;;;4973903;28;20487;-73
2022/05/24 07:21:00;;;;;;;2.20;0.60;;;18.60;99.90;;;;;;4971865;28;20122;-73
2022/05/24 07:23:25;;;;;;;3.28;0.60;;;18.60;99.90;;;;;;4987904;28;21345;-73
2022/05/24 07:25:53;;;;;;;3.30;0.63;;;18.50;99.90;;;;;;4974960;28;20041;-73
2022/05/24 07:28:19;;;;;;;3.70;0.93;;;18.40;99.90;;;;;;4992404;28;20046;-73
2022/05/24 07:30:47;;;;;;;2.45;0.70;;;18.20;99.90;;;;;;4971448;28;20034;-73
2022/05/24 07:33:13;;;;;;;4.97;0.80;;;18.10;99.90;;;;;;4987980;28;20427;-73
2022/05/24 07:35:43;;;;;;;2.50;0.60;;;17.90;99.90;;;;;;4991957;28;20038;-73
2022/05/24 07:38:10;;;;;;;1.33;0.50;;;17.50;99.90;;;;;;4974572;28;20069;-73
2022/05/24 07:46:11;;;;;;;0.75;0.43;;;16.80;99.90;;;;;;4987755;28;20093;-73
2022/05/24 07:48:38;;;;;;;1.33;0.30;;;16.70;99.90;;;;;;4969276;28;20030;-74
2022/05/24 07:51:04;;;;;;;1.70;1.00;;;16.60;99.90;;;;;;4975303;28;20510;-74
2022/05/24 07:53:31;;;;;;;1.95;0.32;;;16.60;99.90;;;;;;4984196;28;20537;-73
2022/05/24 07:55:58;;;;;;;1.80;0.45;;;16.50;99.90;;;;;;4987144;28;20086;-74
2022/05/24 07:58:25;;;;;;;0.68;0.30;;;16.40;99.90;;;;;;4990626;28;20018;-73
2022/05/24 08:00:51;;;;;;;3.33;0.47;;;16.40;99.90;;;;;;4992915;28;20022;-73
2022/05/24 08:03:17;;;;;;;3.97;0.93;;;16.40;99.90;;;;;;4986989;28;20022;-73
2022/05/24 08:05:43;;;;;;;2.30;0.70;;;16.50;99.90;;;;;;4990621;28;20113;-73
2022/05/24 08:08:09;;;;;;;7.30;0.63;;;16.60;99.90;;;;;;4992043;28;20033;-73
2022/05/24 08:10:37;;;;;;;9.10;1.23;;;16.70;99.90;;;;;;4986393;28;20053;-74
2022/05/24 08:13:06;;;;;;;0.70;0.40;;;16.90;99.90;;;;;;4990743;28;20045;-74
2022/05/24 08:15:32;;;;;;;2.30;0.50;;;17.10;99.90;;;;;;4972321;28;20026;-73
2022/05/24 08:17:59;;;;;;;0.55;0.40;;;17.30;99.90;;;;;;4988570;28;20070;-73
2022/05/24 08:20:26;;;;;;;0.80;0.47;;;17.60;99.90;;;;;;4990643;28;20483;-74
2022/05/24 08:22:52;;;;;;;1.27;0.43;;;17.90;99.90;;;;;;4973951;28;20023;-73
2022/05/24 08:25:18;;;;;;;0.88;0.50;;;18.10;99.90;;;;;;4970836;28;20524;-73
2022/05/24 08:27:45;;;;;;;0.75;0.40;;;18.20;99.90;;;;;;4978030;28;20034;-73
2022/05/24 08:30:15;;;;;;;0.50;0.40;;;18.30;99.90;;;;;;4989468;28;20049;-73
2022/05/24 08:32:42;;;;;;;0.65;0.20;;;18.30;99.90;;;;;;4988745;28;20034;-74
2022/05/24 08:35:10;;;;;;;0.40;0.35;;;18.30;99.90;;;;;;4986834;28;20067;-74
2022/05/24 08:37:36;;;;;;;0.30;0.20;;;18.30;99.90;;;;;;4988720;28;20030;-74
2022/05/24 08:40:03;;;;;;;0.65;0.20;;;18.30;99.90;;;;;;4989906;28;20080;-74
2022/05/24 08:43:00;;;;;;;1.70;0.20;;;18.40;99.90;;;;;;4971752;28;20030;-74
2022/05/24 08:48:36;;;;;;;1.27;0.40;;;18.50;99.00;;;;;;4987989;28;20702;-74
2022/05/24 08:51:13;;;;;;;2.28;0.60;;;18.50;98.10;;;;;;4986944;28;20518;-74
2022/05/24 08:53:49;;;;;;;0.93;0.60;;;18.60;97.90;;;;;;4988067;28;20534;-74
2022/05/24 08:56:38;;;;;;;0.32;0.30;;;18.60;97.70;;;;;;4988599;28;20026;-74
2022/05/24 08:59:18;;;;;;;0.57;0.30;;;18.50;97.30;;;;;;4989983;28;20023;-74
2022/05/24 09:01:45;;;;;;;0.75;0.30;;;18.40;96.50;;;;;;4968141;28;20049;-74
2022/05/24 09:04:12;;;;;;;1.00;0.30;;;18.30;96.60;;;;;;4986745;28;20030;-74
2022/05/24 09:06:56;;;;;;;1.65;0.40;;;18.20;96.80;;;;;;4989574;28;20090;-74
2022/05/24 09:09:45;;;;;;;0.90;0.50;;;18.30;96.90;;;;;;4968918;28;20145;-75
2022/05/24 09:12:26;;;;;;;0.93;0.50;;;18.40;96.90;;;;;;4989691;28;20070;-74
2022/05/24 09:15:06;;;;;;;1.42;0.43;;;18.60;96.50;;;;;;4983973;28;20106;-74
2022/05/24 09:17:53;;;;;;;0.47;0.20;;;18.60;95.80;;;;;;4982654;28;20990;-74
2022/05/24 09:20:24;;;;;;;0.30;0.30;;;18.60;95.70;;;;;;4988228;28;20418;-75
2022/05/24 09:22:53;;;;;;;1.90;0.40;;;18.80;95.90;;;;;;4985526;28;20030;-74
2022/05/24 09:25:21;;;;;;;1.63;0.40;;;18.80;95.50;;;;;;4986151;28;20030;-74
2022/05/24 09:27:51;;;;;;;0.75;0.40;;;18.80;94.80;;;;;;4989435;28;20089;-74
2022/05/24 09:30:25;;;;;;;0.80;0.43;;;18.80;94.40;;;;;;4986176;28;20090;-74
2022/05/24 09:32:51;;;;;;;1.30;0.43;;;18.70;94.40;;;;;;4973152;28;20056;-74
2022/05/24 09:35:18;;;;;;;1.25;0.40;;;18.70;94.60;;;;;;4985904;28;20018;-74
2022/05/24 09:38:03;;;;;;;1.08;0.40;;;18.70;94.40;;;;;;4987388;28;20109;-75
2022/05/24 09:40:31;;;;;;;1.20;0.82;;;18.70;94.40;;;;;;4987505;28;20134;-74
2022/05/24 09:43:29;;;;;;;1.40;0.65;;;18.70;94.20;;;;;;4971524;28;20538;-75
2022/05/24 09:46:03;;;;;;;0.75;0.30;;;18.70;94.10;;;;;;4992036;28;20483;-75
2022/05/24 09:48:31;;;;;;;0.50;0.50;;;18.80;93.70;;;;;;4990561;28;20045;-75
2022/05/24 09:50:59;;;;;;;1.33;0.50;;;18.70;93.30;;;;;;4991055;28;20143;-74
2022/05/24 09:53:30;;;;;;;0.55;0.32;;;18.80;93.20;;;;;;4976858;28;20026;-72
2022/05/24 09:56:02;;;;;;;0.77;0.30;;;18.80;92.90;;;;;;4991706;28;20153;-74
2022/05/24 09:58:50;;;;;;;1.77;0.40;;;18.70;92.40;;;;;;4992769;28;20102;-74
2022/05/24 10:01:40;;;;;;;0.77;0.50;;;18.70;92.70;;;;;;4991111;28;20025;-74
2022/05/24 10:04:36;;;;;;;2.35;0.57;;;18.60;92.50;;;;;;4992203;28;20045;-74
2022/05/24 10:07:26;;;;;;;0.77;0.50;;;18.60;92.40;;;;;;4976518;28;20070;-73
2022/05/24 10:09:56;;;;;;;3.38;0.40;;;18.70;91.70;;;;;;4980746;28;20114;-74
2022/05/24 10:12:39;;;;;;;0.80;0.40;;;18.60;91.20;;;;;;4996675;28;20068;-73
2022/05/24 10:15:11;;;;;;;2.22;0.43;;;18.60;91.40;;;;;;4997486;28;20034;-73
2022/05/24 10:17:45;;;;;;;3.35;0.80;;;18.60;91.30;;;;;;4995514;28;20014;-74
2022/05/24 10:20:47;;;;;;;0.73;0.40;;;18.80;91.20;;;;;;4972873;28;20486;-74
2022/05/24 10:23:41;;;;;;;1.52;0.57;;;19.00;91.20;;;;;;4990718;28;20031;-74
2022/05/24 10:26:15;;;;;;;0.57;0.50;;;19.20;90.50;;;;;;4989516;28;20023;-74
2022/05/24 10:29:10;;;;;;;1.20;0.30;;;19.10;89.90;;;;;;5008567;28;20035;-74
2022/05/24 10:38:17;;;;;;;3.00;0.50;;;19.10;89.70;;;;;;4975467;28;20169;-74
2022/05/24 10:41:14;;;;;;;2.08;0.55;;;19.00;90.30;;;;;;4992545;28;20050;-74
2022/05/24 10:44:00;;;;;;;0.60;0.40;;;19.10;90.20;;;;;;4977219;28;20037;-74
2022/05/24 10:46:53;;;;;;;0.50;0.40;;;19.20;88.80;;;;;;4993872;28;20026;-74
2022/05/24 10:49:41;;;;;;;0.50;0.40;;;19.40;87.10;;;;;;4971888;28;20129;-74
2022/05/24 10:52:37;;;;;;;0.55;0.30;;;19.50;84.60;;;;;;4953983;28;20046;-73
2022/05/24 10:55:26;;;;;;;0.38;0.38;;;19.60;82.90;;;;;;4992194;28;20029;-74
2022/05/24 10:58:01;;;;;;;3.83;0.50;;;19.60;82.60;;;;;;4991497;28;20080;-74
2022/05/24 11:00:51;;;;;;;2.05;0.30;;;19.60;82.60;;;;;;4994291;28;20022;-74
2022/05/24 11:03:30;;;;;;;0.30;0.30;;;19.70;80.90;;;;;;4946081;28;20491;-74
2022/05/24 11:06:03;;;;;;;0.70;0.40;;;19.80;80.60;;;;;;4990867;28;20031;-74
2022/05/24 11:08:35;;;;;;;1.85;0.40;;;19.90;80.70;;;;;;4992218;28;20105;-74
2022/05/24 11:11:13;;;;;;;0.63;0.30;;;19.90;79.90;;;;;;4994896;28;20030;-74
2022/05/24 11:13:47;;;;;;;0.70;0.50;;;19.80;79.90;;;;;;4993070;28;20649;-74
2022/05/24 11:16:21;;;;;;;1.38;0.40;;;19.90;80.90;;;;;;4990693;28;20499;-74
2022/05/24 11:18:47;;;;;;;2.80;0.70;;;19.90;80.00;;;;;;4995612;28;20042;-74
2022/05/24 11:21:22;;;;;;;1.42;0.55;;;20.00;80.40;;;;;;4988108;28;20100;-73
2022/05/24 11:24:18;;;;;;;1.05;0.45;;;20.10;80.90;;;;;;4994089;28;20475;-73
2022/05/24 11:26:55;;;;;;;8.98;0.80;;;20.40;79.70;;;;;;4995129;28;20494;-74
2022/05/24 11:29:36;;;;;;;1.75;0.50;;;20.50;79.70;;;;;;4982002;28;20031;-74
2022/05/24 11:32:08;;;;;;;2.90;0.88;;;20.60;79.20;;;;;;4986065;28;20027;-74
2022/05/24 11:34:51;;;;;;;1.52;0.50;;;20.70;79.20;;;;;;4970896;28;20030;-74
2022/05/24 11:37:33;;;;;;;4.22;1.40;;;20.60;76.80;;;;;;4990138;28;20030;-74
2022/05/24 11:40:32;;;;;;;1.02;0.50;;;20.50;75.50;;;;;;4992222;28;20026;-73
2022/05/24 11:43:07;;;;;;;1.27;0.63;;;20.30;73.20;;;;;;4985609;28;20785;-74
2022/05/24 11:45:33;;;;;;;2.13;0.70;;;20.20;73.30;;;;;;4984396;28;20375;-74
2022/05/24 11:48:00;;;;;;;1.38;0.70;;;20.20;73.70;;;;;;4991213;28;20033;-74
2022/05/24 11:50:32;;;;;;;0.73;0.40;;;20.40;74.40;;;;;;4969305;28;20436;-73
2022/05/24 11:53:24;;;;;;;2.05;0.60;;;20.60;75.00;;;;;;4990377;28;20030;-73
2022/05/24 11:55:55;;;;;;;1.45;0.60;;;20.60;73.90;;;;;;4968405;28;20046;-74
2022/05/24 11:58:21;;;;;;;0.90;0.60;;;20.80;74.10;;;;;;4969639;28;20486;-74
2022/05/24 12:01:05;;;;;;;0.70;0.55;;;20.90;73.90;;;;;;4998224;28;20030;-73
2022/05/24 12:09:24;;;;;;;1.25;0.70;;;20.80;73.30;;;;;;4990724;28;20089;-74
2022/05/24 12:12:20;;;;;;;1.08;0.40;;;20.80;73.70;;;;;;4970555;28;20038;-74
2022/05/24 12:14:46;;;;;;;0.95;0.47;;;20.80;73.80;;;;;;4971850;28;20034;-74
2022/05/24 12:17:15;;;;;;;0.50;0.50;;;20.90;73.60;;;;;;4991328;28;20067;-74
2022/05/24 12:19:43;;;;;;;0.60;0.40;;;21.00;73.10;;;;;;4977909;28;20033;-73
2022/05/24 12:22:18;;;;;;;2.17;0.70;;;21.00;72.40;;;;;;4977057;28;20146;-73
2022/05/24 12:24:49;;;;;;;1.10;0.65;;;21.10;71.60;;;;;;4985821;28;20631;-74
2022/05/24 12:27:20;;;;;;;1.20;0.60;;;21.20;70.90;;;;;;4974081;28;20031;-74
2022/05/24 12:29:58;;;;;;;2.35;0.50;;;21.30;70.70;;;;;;4992218;28;21735;-74
2022/05/24 12:32:25;;;;;;;1.10;0.60;;;21.40;70.70;;;;;;5001130;28;20026;-74
2022/05/24 12:34:52;;;;;;;2.55;0.82;;;21.30;70.50;;;;;;4992903;28;20053;-74
2022/05/24 12:37:26;;;;;;;1.65;0.55;;;21.30;69.90;;;;;;4990646;28;20038;-74
2022/05/24 12:40:11;;;;;;;1.20;0.60;;;21.40;70.30;;;;;;4990516;28;20487;-74
2022/05/24 12:42:48;;;;;;;1.50;0.60;;;21.30;69.50;;;;;;4991648;28;20507;-74
2022/05/24 12:45:30;;;;;;;1.27;0.80;;;21.20;70.10;;;;;;4987744;28;20041;-73
2022/05/24 12:47:57;;;;;;;2.80;0.50;;;21.20;70.00;;;;;;4988712;28;20057;-73
2022/05/24 12:50:35;;;;;;;0.82;0.52;;;21.10;70.50;;;;;;4989125;28;20506;-74
2022/05/24 12:53:05;;;;;;;2.15;0.60;;;21.20;70.70;;;;;;4992224;28;20506;-74
2022/05/24 12:58:25;;;;;;;0.55;0.40;;;21.40;70.10;;;;;;4992641;28;20042;-74
2022/05/24 13:00:50;;;;;;;3.05;0.68;;;21.50;69.20;;;;;;4990549;28;20093;-74
2022/05/24 13:03:23;;;;;;;1.58;0.60;;;21.70;69.60;;;;;;4988891;28;20447;-74
2022/05/24 13:05:55;;;;;;;0.98;0.50;;;21.80;68.40;;;;;;5013077;23;20379;-72
2022/05/24 13:08:21;;;;;;;0.88;0.40;;;21.90;66.80;;;;;;4987434;28;20034;-73
2022/05/24 13:10:48;;;;;;;1.13;0.70;;;21.90;66.50;;;;;;4993328;28;20026;-72
2022/05/24 13:13:22;;;;;;;2.40;0.60;;;22.00;66.20;;;;;;4975758;28;20033;-72
2022/05/24 13:15:56;;;;;;;2.33;0.60;;;22.10;65.70;;;;;;4975931;28;20034;-73
2022/05/24 13:18:23;;;;;;;;;;;22.10;65.80;;;;;;4976429;28;20025;-71
2022/05/24 13:20:54;;;;;;;0.93;0.52;;;22.10;64.70;;;;;;4968318;28;19913;-73
2022/05/24 13:23:29;;;;;;;3.03;0.60;;;22.10;64.30;;;;;;4993442;28;20022;-72
2022/05/24 13:26:14;;;;;;;6.35;0.70;;;22.10;63.80;;;;;;4993128;28;20113;-72
2022/05/24 13:28:42;;;;;;;1.95;0.50;;;22.20;64.00;;;;;;4993084;28;20487;-71
2022/05/24 13:34:14;;;;;;;1.73;0.68;;;22.10;61.60;;;;;;4993026;28;20037;-71
2022/05/24 13:36:49;;;;;;;1.67;0.55;;;22.20;62.60;;;;;;4976495;28;20648;-71
2022/05/24 13:39:15;;;;;;;2.25;0.55;;;22.30;62.80;;;;;;4992818;28;20050;-72
2022/05/24 13:41:45;;;;;;;3.45;0.90;;;22.30;62.50;;;;;;4992967;28;20025;-72
2022/05/24 13:44:21;;;;;;;2.92;0.90;;;22.30;62.50;;;;;;4980690;28;20033;-71
2022/05/24 13:46:59;;;;;;;1.85;0.50;;;22.20;62.80;;;;;;4991564;28;20490;-72
2022/05/24 13:49:46;;;;;;;1.55;0.47;;;22.30;63.10;;;;;;4971568;28;20386;-72
2022/05/24 13:52:29;;;;;;;2.38;0.60;;;22.30;63.30;;;;;;4971065;28;20034;-72
2022/05/24 13:55:15;;;;;;;1.67;0.50;;;22.40;62.70;;;;;;4992960;28;20023;-72
2022/05/24 13:57:46;;;;;;;2.42;0.73;;;22.40;61.30;;;;;;4992861;28;20036;-72
2022/05/24 14:00:34;;;;;;;0.75;0.50;;;22.40;59.40;;;;;;4975333;28;20026;-72